Time;durP1;ratioP1;P1;durP2;ratioP2;P2;SDS_P1;SDS_P2;PMS_P1;PMS_P2;Temp;Humidity;BMP_temperature;BMP_pressure;BME280_temperature;BME280_humidity;BME280_pressure;Samples;Min_cycle;Max_cycle;Signal;HPM_P1;HPM_P2
2023/03/10 00:00:35;;;;;;;9.18;8.77;;;;;;;;;;5084943;28;20477;-63
2023/03/10 00:03:00;;;;;;;8.95;8.55;;;;;;;;;;5085916;28;20028;-63
2023/03/10 00:05:26;;;;;;;9.77;9.27;;;;;;;;;;5087805;28;20386;-64
2023/03/10 00:07:51;;;;;;;9.40;9.00;;;;;;;;;;5079373;28;20052;-63
2023/03/10 00:10:17;;;;;;;9.35;8.95;;;;;;;;;;5074181;28;20020;-64
2023/03/10 00:12:42;;;;;;;9.20;8.80;;;;;;;;;;5074391;28;20020;-63
2023/03/10 00:15:08;;;;;;;9.10;8.70;;;;;;;;;;5074334;28;20472;-64
2023/03/10 00:17:34;;;;;;;9.77;9.27;;;;;;;;;;5065583;28;20372;-64
2023/03/10 00:19:59;;;;;;;8.70;8.30;;;;;;;;;;5073834;28;20033;-64
2023/03/10 00:22:24;;;;;;;8.70;8.30;;;;;;;;;;5072830;28;20024;-64
2023/03/10 00:24:49;;;;;;;9.23;8.82;;;;;;;;;;5073118;28;20056;-64
2023/03/10 00:27:15;;;;;;;9.00;8.60;;;;;;;;;;5074176;28;20020;-64
2023/03/10 00:29:40;;;;;;;9.20;8.80;;;;;;;;;;5074110;28;20020;-63
2023/03/10 00:32:05;;;;;;;9.15;8.75;;;;;;;;;;5070070;28;20052;-63
2023/03/10 00:34:31;;;;;;;9.75;9.25;;;;;;;;;;5072196;28;20149;-64
2023/03/10 00:36:56;;;;;;;9.60;9.18;;;;;;;;;;5083379;28;20017;-64
2023/03/10 00:39:21;;;;;;;8.95;8.55;;;;;;;;;;5060723;28;20029;-63
2023/03/10 00:41:47;;;;;;;9.07;8.68;;;;;;;;;;5073669;28;20024;-63
2023/03/10 00:44:12;;;;;;;9.40;9.00;;;;;;;;;;5071929;28;20048;-63
2023/03/10 00:46:37;;;;;;;8.68;8.27;;;;;;;;;;5073710;28;20020;-64
2023/03/10 00:49:04;;;;;;;8.90;8.50;;;;;;;;;;5059561;28;20600;-64
2023/03/10 00:51:29;;;;;;;9.20;8.80;;;;;;;;;;5072784;28;20025;-63
2023/03/10 00:53:55;;;;;;;9.40;9.00;;;;;;;;;;5073589;28;20106;-63
2023/03/10 00:56:24;;;;;;;9.65;9.18;;;;;;;;;;5071868;28;20036;-63
2023/03/10 00:58:50;;;;;;;9.10;8.70;;;;;;;;;;5074875;28;20048;-63
2023/03/10 01:01:20;;;;;;;9.38;8.98;;;;;;;;;;5072893;28;20021;-63
2023/03/10 01:03:45;;;;;;;10.07;9.57;;;;;;;;;;5072934;28;20013;-64
2023/03/10 01:06:10;;;;;;;9.20;8.80;;;;;;;;;;5073470;28;20027;-63
2023/03/10 01:08:36;;;;;;;9.00;8.60;;;;;;;;;;5072414;28;20035;-64
2023/03/10 01:11:01;;;;;;;9.10;8.70;;;;;;;;;;5072434;28;20024;-64
2023/03/10 01:13:27;;;;;;;9.80;9.30;;;;;;;;;;5067487;28;20364;-64
2023/03/10 01:15:52;;;;;;;9.10;8.70;;;;;;;;;;5073287;28;20028;-64
2023/03/10 01:18:18;;;;;;;9.00;8.60;;;;;;;;;;5072602;28;20411;-63
2023/03/10 01:20:43;;;;;;;8.70;8.30;;;;;;;;;;5072637;28;20032;-64
2023/03/10 01:23:16;;;;;;;9.38;8.98;;;;;;;;;;5073071;28;20024;-64
2023/03/10 01:25:42;;;;;;;8.75;8.35;;;;;;;;;;5069942;28;20108;-64
2023/03/10 01:28:07;;;;;;;9.00;8.60;;;;;;;;;;5070807;28;20103;-64
2023/03/10 01:30:32;;;;;;;9.02;8.63;;;;;;;;;;5073172;28;20033;-64
2023/03/10 01:32:58;;;;;;;9.63;9.13;;;;;;;;;;5056516;28;20150;-64
2023/03/10 01:35:23;;;;;;;8.93;8.52;;;;;;;;;;5072906;28;20040;-63
2023/03/10 01:37:48;;;;;;;9.07;8.68;;;;;;;;;;5073398;28;20017;-63
2023/03/10 01:40:17;;;;;;;9.23;8.82;;;;;;;;;;5072790;28;20067;-63
2023/03/10 01:42:43;;;;;;;8.88;8.48;;;;;;;;;;5072043;28;20468;-63
2023/03/10 01:45:09;;;;;;;9.40;9.00;;;;;;;;;;5072407;28;20028;-63
2023/03/10 01:47:34;;;;;;;10.10;9.60;;;;;;;;;;5070410;28;20027;-63
2023/03/10 01:50:00;;;;;;;8.75;8.35;;;;;;;;;;5072613;28;20035;-63
2023/03/10 01:52:28;;;;;;;8.88;8.48;;;;;;;;;;5072551;28;20021;-63
2023/03/10 01:54:53;;;;;;;8.90;8.50;;;;;;;;;;5062945;28;20020;-63
2023/03/10 01:57:20;;;;;;;8.90;8.50;;;;;;;;;;5069990;28;20024;-64
2023/03/10 01:59:46;;;;;;;8.90;8.50;;;;;;;;;;5061368;28;20108;-64
2023/03/10 02:02:11;;;;;;;9.20;8.80;;;;;;;;;;5072178;28;20103;-64
2023/03/10 02:04:41;;;;;;;8.90;8.50;;;;;;;;;;5073103;28;20099;-64
2023/03/10 02:07:07;;;;;;;9.02;8.63;;;;;;;;;;5071376;28;20551;-64
2023/03/10 02:09:34;;;;;;;8.88;8.48;;;;;;;;;;5071189;28;20020;-64
2023/03/10 02:12:01;;;;;;;9.00;8.60;;;;;;;;;;5072656;28;20056;-63
2023/03/10 02:14:26;;;;;;;8.90;8.50;;;;;;;;;;5072312;28;20028;-63
2023/03/10 02:16:52;;;;;;;8.90;8.50;;;;;;;;;;5060017;28;20021;-63
2023/03/10 02:19:24;;;;;;;8.80;8.40;;;;;;;;;;5072366;28;20088;-64
2023/03/10 02:22:01;;;;;;;9.02;8.63;;;;;;;;;;5073252;28;20464;-64
2023/03/10 02:24:53;;;;;;;9.00;8.60;;;;;;;;;;5069861;28;20020;-63
2023/03/10 02:27:23;;;;;;;9.35;8.95;;;;;;;;;;5055692;28;20036;-64
2023/03/10 02:29:58;;;;;;;9.38;8.98;;;;;;;;;;5072227;28;20019;-64
2023/03/10 02:32:23;;;;;;;9.35;8.88;;;;;;;;;;5069964;28;20028;-63
2023/03/10 02:34:49;;;;;;;9.00;8.60;;;;;;;;;;5067429;28;20099;-63
2023/03/10 02:37:21;;;;;;;9.55;9.05;;;;;;;;;;5068534;28;20059;-63
2023/03/10 02:39:47;;;;;;;9.18;8.77;;;;;;;;;;5063141;28;20058;-63
2023/03/10 02:42:12;;;;;;;9.32;8.93;;;;;;;;;;5072799;28;20024;-63
2023/03/10 02:44:38;;;;;;;9.10;8.70;;;;;;;;;;5071773;28;20012;-64
2023/03/10 02:47:03;;;;;;;9.65;9.15;;;;;;;;;;5071050;28;20480;-63
2023/03/10 02:49:29;;;;;;;9.85;9.35;;;;;;;;;;5070653;28;20095;-63
2023/03/10 02:51:54;;;;;;;9.25;8.85;;;;;;;;;;5071854;28;20028;-63
2023/03/10 02:54:20;;;;;;;9.30;8.90;;;;;;;;;;5071701;28;20429;-63
2023/03/10 02:56:45;;;;;;;8.95;8.55;;;;;;;;;;5072105;28;20562;-64
2023/03/10 02:59:11;;;;;;;9.63;9.13;;;;;;;;;;5071634;28;20073;-63
2023/03/10 03:01:36;;;;;;;9.00;8.60;;;;;;;;;;5070859;28;20021;-64
2023/03/10 03:04:02;;;;;;;8.85;8.45;;;;;;;;;;5071521;28;20017;-63
2023/03/10 03:06:27;;;;;;;9.20;8.80;;;;;;;;;;5070730;28;20025;-63
2023/03/10 03:08:53;;;;;;;9.35;8.95;;;;;;;;;;5057456;28;20440;-63
2023/03/10 03:11:18;;;;;;;8.65;8.25;;;;;;;;;;5071708;28;20428;-64
2023/03/10 03:13:43;;;;;;;9.40;8.95;;;;;;;;;;5071374;28;20101;-63
2023/03/10 03:16:09;;;;;;;9.20;8.80;;;;;;;;;;5071401;28;20070;-64
2023/03/10 03:18:35;;;;;;;8.98;8.57;;;;;;;;;;5066073;28;20025;-63
2023/03/10 03:21:07;;;;;;;9.23;8.82;;;;;;;;;;5071262;28;20067;-63
2023/03/10 03:23:33;;;;;;;9.80;9.30;;;;;;;;;;5070015;28;20025;-62
2023/03/10 03:25:59;;;;;;;9.18;8.77;;;;;;;;;;5071252;28;20024;-63
2023/03/10 03:28:24;;;;;;;8.77;8.38;;;;;;;;;;5071196;28;20086;-63
2023/03/10 03:30:49;;;;;;;8.40;8.00;;;;;;;;;;5063421;28;20078;-63
2023/03/10 03:33:15;;;;;;;9.80;9.30;;;;;;;;;;5069090;28;20395;-64
2023/03/10 03:35:42;;;;;;;8.88;8.48;;;;;;;;;;5071362;28;20017;-63
2023/03/10 03:38:07;;;;;;;9.40;8.95;;;;;;;;;;5071293;28;20042;-62
2023/03/10 03:40:33;;;;;;;9.07;8.68;;;;;;;;;;5070366;28;20016;-63
2023/03/10 03:42:59;;;;;;;9.00;8.60;;;;;;;;;;5073171;28;20024;-63
2023/03/10 03:45:25;;;;;;;9.30;8.90;;;;;;;;;;5074546;28;20024;-63
2023/03/10 03:47:50;;;;;;;9.80;9.30;;;;;;;;;;5074138;28;20428;-63
2023/03/10 03:50:16;;;;;;;9.55;9.05;;;;;;;;;;5071236;28;20181;-63
2023/03/10 03:52:42;;;;;;;9.20;8.80;;;;;;;;;;5075040;28;20384;-63
2023/03/10 03:55:08;;;;;;;9.05;8.65;;;;;;;;;;5074219;28;20040;-63
2023/03/10 03:57:33;;;;;;;9.18;8.77;;;;;;;;;;5079563;28;20146;-63
2023/03/10 03:59:58;;;;;;;8.73;8.32;;;;;;;;;;5074504;28;20013;-64
2023/03/10 04:02:24;;;;;;;9.07;8.68;;;;;;;;;;5070954;28;20021;-62
2023/03/10 04:04:49;;;;;;;9.15;8.75;;;;;;;;;;5077107;28;20040;-63
2023/03/10 04:07:15;;;;;;;9.98;9.48;;;;;;;;;;5065893;28;20075;-62
2023/03/10 04:09:41;;;;;;;9.00;8.60;;;;;;;;;;5064564;28;20103;-62
2023/03/10 04:12:08;;;;;;;8.95;8.55;;;;;;;;;;5074507;28;20020;-63
2023/03/10 04:14:34;;;;;;;9.20;8.80;;;;;;;;;;5072232;28;20037;-62
2023/03/10 04:16:59;;;;;;;9.45;8.98;;;;;;;;;;5074213;28;20082;-64
2023/03/10 04:19:25;;;;;;;9.02;8.63;;;;;;;;;;5073937;28;20027;-64
2023/03/10 04:21:50;;;;;;;8.80;8.40;;;;;;;;;;5075005;28;20074;-63
2023/03/10 04:24:15;;;;;;;8.70;8.30;;;;;;;;;;5074870;28;20584;-63
2023/03/10 04:26:40;;;;;;;9.07;8.68;;;;;;;;;;5070980;28;20111;-63
2023/03/10 04:29:06;;;;;;;9.65;9.15;;;;;;;;;;5072493;28;20024;-63
2023/03/10 04:31:31;;;;;;;8.93;8.52;;;;;;;;;;5072787;28;20427;-63
2023/03/10 04:33:57;;;;;;;9.05;8.65;;;;;;;;;;5074005;28;20024;-63
2023/03/10 04:36:22;;;;;;;9.32;8.90;;;;;;;;;;5073083;28;20472;-63
2023/03/10 04:38:48;;;;;;;9.82;9.32;;;;;;;;;;5074837;28;20024;-64
2023/03/10 04:41:13;;;;;;;10.23;9.65;;;;;;;;;;5056506;28;20028;-61
2023/03/10 04:43:38;;;;;;;9.07;8.68;;;;;;;;;;5066721;28;20055;-61
2023/03/10 04:46:04;;;;;;;9.10;8.70;;;;;;;;;;5073828;28;20033;-60
2023/03/10 04:48:29;;;;;;;9.07;8.68;;;;;;;;;;5072767;28;20032;-61
2023/03/10 04:51:05;;;;;;;9.27;8.77;;;;;;;;;;5072059;28;20020;-62
2023/03/10 04:53:32;;;;;;;9.00;8.60;;;;;;;;;;5063660;28;20013;-62
2023/03/10 04:55:58;;;;;;;8.77;8.38;;;;;;;;;;5063075;28;20048;-61
2023/03/10 04:58:24;;;;;;;9.07;8.68;;;;;;;;;;5070993;28;20028;-61
2023/03/10 05:00:49;;;;;;;8.93;8.52;;;;;;;;;;5063513;28;20017;-62
2023/03/10 05:03:15;;;;;;;9.82;9.32;;;;;;;;;;5072631;28;20021;-60
2023/03/10 05:05:40;;;;;;;9.00;8.60;;;;;;;;;;5069399;28;20565;-61
2023/03/10 05:08:06;;;;;;;9.73;9.27;;;;;;;;;;5072756;28;20035;-61
2023/03/10 05:10:31;;;;;;;9.05;8.65;;;;;;;;;;5072763;28;20063;-60
2023/03/10 05:12:56;;;;;;;9.40;9.00;;;;;;;;;;5061056;28;20036;-61
2023/03/10 05:15:22;;;;;;;9.63;9.23;;;;;;;;;;5065731;28;20115;-61
2023/03/10 05:17:47;;;;;;;10.50;10.00;;;;;;;;;;5066901;28;20019;-61
2023/03/10 05:20:14;;;;;;;10.32;9.82;;;;;;;;;;5069015;28;20048;-62
2023/03/10 05:22:39;;;;;;;9.88;9.48;;;;;;;;;;5065605;28;20032;-62
2023/03/10 05:25:05;;;;;;;10.02;9.63;;;;;;;;;;5060596;28;20640;-61
2023/03/10 05:27:31;;;;;;;9.90;9.50;;;;;;;;;;5058625;28;20020;-62
2023/03/10 05:29:57;;;;;;;10.07;9.68;;;;;;;;;;5069999;28;20040;-63
2023/03/10 05:32:22;;;;;;;9.60;9.20;;;;;;;;;;5058828;28;20491;-65
2023/03/10 05:34:47;;;;;;;10.00;9.60;;;;;;;;;;5065206;28;20047;-63
2023/03/10 05:37:12;;;;;;;10.32;9.85;;;;;;;;;;5072316;28;20024;-64
2023/03/10 05:39:38;;;;;;;10.50;10.00;;;;;;;;;;5069946;28;20028;-65
2023/03/10 05:42:03;;;;;;;10.13;9.73;;;;;;;;;;5072757;28;20020;-64
2023/03/10 05:44:28;;;;;;;10.10;9.70;;;;;;;;;;5072192;28;20422;-64
2023/03/10 05:46:54;;;;;;;10.18;9.77;;;;;;;;;;5072813;28;20044;-65
2023/03/10 05:49:19;;;;;;;10.15;9.75;;;;;;;;;;5072302;28;20025;-64
2023/03/10 05:51:44;;;;;;;10.50;10.00;;;;;;;;;;5070492;28;20479;-68
2023/03/10 05:54:10;;;;;;;10.60;10.10;;;;;;;;;;5061733;28;20025;-65
2023/03/10 05:56:36;;;;;;;10.00;9.60;;;;;;;;;;5072391;28;20051;-63
2023/03/10 05:59:02;;;;;;;9.98;9.57;;;;;;;;;;5060941;28;20463;-64
2023/03/10 06:01:28;;;;;;;9.90;9.50;;;;;;;;;;5071179;28;20024;-61
2023/03/10 06:03:53;;;;;;;11.15;10.65;;;;;;;;;;5078390;28;20215;-62
2023/03/10 06:06:18;;;;;;;10.32;9.90;;;;;;;;;;5077540;28;20013;-62
2023/03/10 06:08:44;;;;;;;10.07;9.68;;;;;;;;;;5061425;28;20040;-61
2023/03/10 06:11:10;;;;;;;10.30;9.90;;;;;;;;;;5056811;28;21055;-61
2023/03/10 06:13:36;;;;;;;10.60;10.10;;;;;;;;;;5058197;28;20040;-62
2023/03/10 06:16:03;;;;;;;11.43;10.93;;;;;;;;;;5053325;28;20026;-63
2023/03/10 06:18:28;;;;;;;10.65;10.15;;;;;;;;;;5057787;28;20122;-61
2023/03/10 06:20:54;;;;;;;10.50;10.00;;;;;;;;;;5066659;28;20024;-61
2023/03/10 06:23:20;;;;;;;10.52;10.02;;;;;;;;;;5068208;28;20017;-62
2023/03/10 06:25:54;;;;;;;10.50;10.00;;;;;;;;;;5070112;28;20090;-63
2023/03/10 06:28:19;;;;;;;10.57;10.07;;;;;;;;;;5069951;28;20054;-62
2023/03/10 06:30:44;;;;;;;10.57;10.07;;;;;;;;;;5064807;28;20025;-63
2023/03/10 06:33:10;;;;;;;10.50;10.00;;;;;;;;;;5061075;28;20346;-62
2023/03/10 06:35:35;;;;;;;10.50;10.00;;;;;;;;;;5067857;28;20574;-62
2023/03/10 06:38:01;;;;;;;10.23;9.82;;;;;;;;;;5069685;28;20032;-61
2023/03/10 06:40:26;;;;;;;10.55;10.05;;;;;;;;;;5069680;28;20040;-62
2023/03/10 06:42:51;;;;;;;10.30;9.90;;;;;;;;;;5070035;28;20082;-62
2023/03/10 06:45:17;;;;;;;10.70;10.20;;;;;;;;;;5063836;28;20326;-62
2023/03/10 06:47:43;;;;;;;10.20;9.80;;;;;;;;;;5068196;28;20082;-61
2023/03/10 06:50:09;;;;;;;10.45;9.95;;;;;;;;;;5068853;28;20392;-62
2023/03/10 06:52:34;;;;;;;10.10;9.70;;;;;;;;;;5067201;28;20032;-62
2023/03/10 06:55:00;;;;;;;10.05;9.65;;;;;;;;;;5069378;28;20032;-61
2023/03/10 06:57:26;;;;;;;10.45;9.98;;;;;;;;;;5069651;28;20028;-61
2023/03/10 06:59:51;;;;;;;10.50;10.00;;;;;;;;;;5069695;28;20025;-62
2023/03/10 07:02:18;;;;;;;10.20;9.80;;;;;;;;;;5064039;28;20044;-62
2023/03/10 07:04:43;;;;;;;10.40;9.95;;;;;;;;;;5058447;28;20099;-63
2023/03/10 07:07:09;;;;;;;10.60;10.10;;;;;;;;;;5062456;28;20776;-62
2023/03/10 07:09:34;;;;;;;10.43;9.97;;;;;;;;;;5063423;28;20060;-62
2023/03/10 07:11:59;;;;;;;11.13;10.63;;;;;;;;;;5068023;28;20349;-66
2023/03/10 07:14:25;;;;;;;11.23;10.73;;;;;;;;;;5062647;28;20039;-67
2023/03/10 07:16:50;;;;;;;11.10;10.60;;;;;;;;;;5053609;28;20024;-65
2023/03/10 07:19:15;;;;;;;10.83;10.33;;;;;;;;;;5073853;28;20012;-64
2023/03/10 07:21:41;;;;;;;10.73;10.23;;;;;;;;;;5054488;28;20372;-64
2023/03/10 07:24:06;;;;;;;11.10;10.60;;;;;;;;;;5075055;28;20770;-66
2023/03/10 07:26:31;;;;;;;11.25;10.75;;;;;;;;;;5064934;28;20593;-65
2023/03/10 07:28:57;;;;;;;10.97;10.47;;;;;;;;;;5069088;28;20028;-67
2023/03/10 07:31:22;;;;;;;10.60;10.10;;;;;;;;;;5067654;28;20300;-67
2023/03/10 07:33:48;;;;;;;11.55;11.05;;;;;;;;;;5068263;28;20199;-62
2023/03/10 07:36:15;;;;;;;11.50;11.00;;;;;;;;;;5068091;28;20027;-65
2023/03/10 07:38:41;;;;;;;11.45;10.95;;;;;;;;;;5067987;28;20020;-65
2023/03/10 07:41:07;;;;;;;11.50;11.00;;;;;;;;;;5072017;28;20479;-67
2023/03/10 07:43:32;;;;;;;10.98;10.48;;;;;;;;;;5062868;28;20012;-65
2023/03/10 07:45:57;;;;;;;11.30;10.80;;;;;;;;;;5061886;28;20035;-66
2023/03/10 07:48:23;;;;;;;10.63;10.13;;;;;;;;;;5073999;28;20020;-68
2023/03/10 07:50:55;;;;;;;10.70;10.20;;;;;;;;;;5070024;28;20399;-68
2023/03/10 07:53:21;;;;;;;11.30;10.80;;;;;;;;;;5066038;28;20108;-66
2023/03/10 07:55:46;;;;;;;10.93;10.43;;;;;;;;;;5070278;28;20597;-69
2023/03/10 07:58:11;;;;;;;10.80;10.30;;;;;;;;;;5073012;28;20103;-65
2023/03/10 08:00:37;;;;;;;10.70;10.20;;;;;;;;;;5064390;28;20277;-65
2023/03/10 08:03:02;;;;;;;11.02;10.52;;;;;;;;;;5081726;27;20028;-65
2023/03/10 08:05:27;;;;;;;10.98;10.48;;;;;;;;;;5074356;28;20124;-67
2023/03/10 08:07:53;;;;;;;11.15;10.65;;;;;;;;;;5075512;28;20017;-67
2023/03/10 08:10:18;;;;;;;11.40;10.90;;;;;;;;;;5068047;28;20172;-67
2023/03/10 08:12:43;;;;;;;11.63;11.13;;;;;;;;;;5059116;28;21667;-67
2023/03/10 08:15:09;;;;;;;11.27;10.77;;;;;;;;;;5062155;28;20032;-68
2023/03/10 08:17:35;;;;;;;11.07;10.57;;;;;;;;;;5065883;28;20338;-65
2023/03/10 08:20:00;;;;;;;10.65;10.15;;;;;;;;;;5066546;28;20698;-66
2023/03/10 08:22:26;;;;;;;10.90;10.40;;;;;;;;;;5053266;28;20021;-67
2023/03/10 08:24:52;;;;;;;11.10;10.60;;;;;;;;;;5072626;28;20043;-66
2023/03/10 08:27:18;;;;;;;11.18;10.68;;;;;;;;;;5069877;28;20024;-65
2023/03/10 08:29:43;;;;;;;10.85;10.35;;;;;;;;;;5056297;28;20035;-69
2023/03/10 08:32:10;;;;;;;11.68;11.18;;;;;;;;;;5052139;28;20399;-68
2023/03/10 08:34:35;;;;;;;11.25;10.75;;;;;;;;;;5048990;28;20020;-68
2023/03/10 08:37:00;;;;;;;11.18;10.68;;;;;;;;;;5063421;28;20507;-65
2023/03/10 08:39:26;;;;;;;11.10;10.60;;;;;;;;;;5064988;28;20468;-65
2023/03/10 08:41:52;;;;;;;10.57;10.07;;;;;;;;;;5058993;28;20052;-67
2023/03/10 08:44:17;;;;;;;10.77;10.27;;;;;;;;;;5063039;28;20101;-67
2023/03/10 08:46:47;;;;;;;10.82;10.32;;;;;;;;;;5062821;28;20131;-69
2023/03/10 08:49:13;;;;;;;10.60;10.10;;;;;;;;;;5058783;28;20036;-69
2023/03/10 08:51:39;;;;;;;10.40;9.95;;;;;;;;;;5060777;28;20104;-68
2023/03/10 08:54:05;;;;;;;11.15;10.65;;;;;;;;;;5062616;28;20167;-67
2023/03/10 08:56:30;;;;;;;11.10;10.60;;;;;;;;;;5050107;28;20114;-70
2023/03/10 08:58:58;;;;;;;11.45;10.95;;;;;;;;;;5067172;28;20494;-65
2023/03/10 09:01:24;;;;;;;11.30;10.80;;;;;;;;;;5062153;28;20100;-66
2023/03/10 09:03:49;;;;;;;12.63;12.02;;;;;;;;;;5054897;28;20094;-68
2023/03/10 09:06:14;;;;;;;12.80;12.20;;;;;;;;;;5068993;28;20059;-70
2023/03/10 09:08:40;;;;;;;12.48;11.88;;;;;;;;;;5062949;28;20025;-67
2023/03/10 09:11:05;;;;;;;12.10;11.50;;;;;;;;;;5069076;28;20031;-69
2023/03/10 09:13:31;;;;;;;12.35;11.75;;;;;;;;;;5073022;28;20020;-68
2023/03/10 09:15:56;;;;;;;12.20;11.60;;;;;;;;;;5063595;28;20028;-68
2023/03/10 09:18:21;;;;;;;12.70;12.10;;;;;;;;;;5061974;28;20020;-68
2023/03/10 09:20:46;;;;;;;11.88;11.38;;;;;;;;;;5069059;28;20027;-67
2023/03/10 09:23:12;;;;;;;11.63;11.13;;;;;;;;;;5070196;28;20028;-67
2023/03/10 09:25:39;;;;;;;11.63;11.13;;;;;;;;;;5052266;28;20031;-67
2023/03/10 09:28:06;;;;;;;11.73;11.23;;;;;;;;;;5067695;28;20054;-69
2023/03/10 09:30:32;;;;;;;11.50;11.00;;;;;;;;;;5064491;28;20051;-69
2023/03/10 09:32:58;;;;;;;11.98;11.48;;;;;;;;;;5050201;28;20025;-69
2023/03/10 09:35:24;;;;;;;11.43;10.93;;;;;;;;;;5073476;28;20497;-68
2023/03/10 09:37:49;;;;;;;11.70;11.20;;;;;;;;;;5065119;28;20601;-68
2023/03/10 09:40:16;;;;;;;11.88;11.38;;;;;;;;;;5075046;28;20020;-68
2023/03/10 09:42:43;;;;;;;11.85;11.35;;;;;;;;;;5061423;28;20044;-69
2023/03/10 09:45:19;;;;;;;11.38;10.88;;;;;;;;;;5065636;28;20024;-68
2023/03/10 09:47:50;;;;;;;11.45;10.95;;;;;;;;;;5070515;28;20059;-69
2023/03/10 09:50:42;;;;;;;12.23;11.63;;;;;;;;;;5058958;28;20024;-69
2023/03/10 09:53:10;;;;;;;11.57;11.07;;;;;;;;;;5069010;28;20456;-68
2023/03/10 09:55:40;;;;;;;12.65;12.05;;;;;;;;;;5061452;28;20124;-69
2023/03/10 09:58:10;;;;;;;12.75;12.15;;;;;;;;;;5065024;28;20107;-69
2023/03/10 10:00:37;;;;;;;11.55;11.05;;;;;;;;;;5060553;28;21101;-68
2023/03/10 10:03:05;;;;;;;13.32;12.63;;;;;;;;;;5060992;28;20184;-68
2023/03/10 10:05:32;;;;;;;12.95;12.27;;;;;;;;;;5071429;28;20032;-68
2023/03/10 10:07:59;;;;;;;12.93;12.32;;;;;;;;;;5075220;28;20032;-67
2023/03/10 10:10:28;;;;;;;12.60;12.00;;;;;;;;;;5075105;28;20096;-67
2023/03/10 10:12:57;;;;;;;12.02;11.43;;;;;;;;;;5063578;28;20021;-68
2023/03/10 10:15:24;;;;;;;12.13;11.52;;;;;;;;;;5070063;28;20024;-67
2023/03/10 10:17:49;;;;;;;11.40;10.85;;;;;;;;;;5072034;28;20020;-68
2023/03/10 10:20:29;;;;;;;12.57;11.98;;;;;;;;;;5072424;28;20161;-67
2023/03/10 10:22:55;;;;;;;12.20;11.60;;;;;;;;;;5062941;28;20119;-67
2023/03/10 10:25:21;;;;;;;12.57;11.98;;;;;;;;;;5075121;28;20479;-68
2023/03/10 10:27:49;;;;;;;11.95;11.35;;;;;;;;;;5056194;28;20013;-67
2023/03/10 10:30:24;;;;;;;13.00;12.30;;;;;;;;;;5060485;28;20514;-68
2023/03/10 10:32:57;;;;;;;12.68;12.07;;;;;;;;;;5070517;28;20027;-67
2023/03/10 10:35:24;;;;;;;11.52;10.95;;;;;;;;;;5055818;28;20039;-69
2023/03/10 10:37:57;;;;;;;11.68;11.07;;;;;;;;;;5099020;27;20065;-68
2023/03/10 10:40:24;;;;;;;10.95;10.45;;;;;;;;;;5075614;28;20093;-67
2023/03/10 10:42:51;;;;;;;11.55;10.95;;;;;;;;;;5066917;28;20024;-68
2023/03/10 10:45:34;;;;;;;10.57;10.07;;;;;;;;;;5058972;28;20028;-68
2023/03/10 10:48:00;;;;;;;10.75;10.25;;;;;;;;;;5062779;28;20050;-67
2023/03/10 10:50:26;;;;;;;10.27;9.77;;;;;;;;;;5069009;28;20937;-67
2023/03/10 10:53:07;;;;;;;10.98;10.48;;;;;;;;;;5068702;28;20024;-67
2023/03/10 10:55:33;;;;;;;9.80;9.40;;;;;;;;;;5068010;28;20045;-67
2023/03/10 10:58:03;;;;;;;10.50;10.00;;;;;;;;;;5058150;28;20021;-66
2023/03/10 11:00:32;;;;;;;9.85;9.45;;;;;;;;;;5062848;28;20012;-67
2023/03/10 11:02:58;;;;;;;10.63;10.13;;;;;;;;;;5065949;28;20024;-68
2023/03/10 11:05:29;;;;;;;10.70;10.20;;;;;;;;;;5073918;28;20042;-67
2023/03/10 11:07:55;;;;;;;10.50;10.00;;;;;;;;;;5079344;28;20490;-67
2023/03/10 11:10:25;;;;;;;10.52;10.02;;;;;;;;;;5067190;28;20028;-68
2023/03/10 11:12:55;;;;;;;10.05;9.60;;;;;;;;;;5070113;28;20016;-67
2023/03/10 11:15:37;;;;;;;10.48;9.98;;;;;;;;;;5068241;28;20024;-68
2023/03/10 11:18:16;;;;;;;10.40;9.90;;;;;;;;;;5047994;28;20066;-68
2023/03/10 11:20:59;;;;;;;11.50;10.95;;;;;;;;;;5056266;28;20016;-68
2023/03/10 11:23:24;;;;;;;10.35;9.85;;;;;;;;;;5072184;28;20648;-67
2023/03/10 11:25:56;;;;;;;10.25;9.75;;;;;;;;;;5061577;28;20034;-67
2023/03/10 11:28:24;;;;;;;12.23;11.63;;;;;;;;;;5062005;28;20526;-67
2023/03/10 11:30:52;;;;;;;10.13;9.63;;;;;;;;;;5048128;28;20029;-63
2023/03/10 11:33:33;;;;;;;10.05;9.63;;;;;;;;;;5078869;28;20031;-64
2023/03/10 11:36:09;;;;;;;11.00;10.50;;;;;;;;;;5068503;28;20111;-64
2023/03/10 11:38:34;;;;;;;10.90;10.40;;;;;;;;;;5060712;28;20021;-63
2023/03/10 11:41:20;;;;;;;11.02;10.52;;;;;;;;;;5061087;28;20075;-64
2023/03/10 11:43:45;;;;;;;11.13;10.63;;;;;;;;;;5060380;28;20594;-63
2023/03/10 11:46:29;;;;;;;10.20;9.70;;;;;;;;;;5073270;28;20024;-63
2023/03/10 11:49:09;;;;;;;10.48;9.98;;;;;;;;;;5071673;28;20028;-63
2023/03/10 11:51:37;;;;;;;10.27;9.77;;;;;;;;;;5052676;28;20107;-63
2023/03/10 11:54:09;;;;;;;12.13;11.52;;;;;;;;;;5064110;28;20103;-64
2023/03/10 11:56:36;;;;;;;11.40;10.88;;;;;;;;;;5052915;28;20075;-70
2023/03/10 11:59:07;;;;;;;11.35;10.82;;;;;;;;;;5062593;28;20031;-69
2023/03/10 12:01:41;;;;;;;11.00;10.50;;;;;;;;;;5059383;28;20039;-67
2023/03/10 12:04:09;;;;;;;11.82;11.23;;;;;;;;;;5067015;28;20111;-67
2023/03/10 12:06:41;;;;;;;11.60;11.00;;;;;;;;;;5066060;28;20028;-68
2023/03/10 12:09:13;;;;;;;11.95;11.35;;;;;;;;;;5078994;28;20039;-67
2023/03/10 12:11:38;;;;;;;11.73;11.13;;;;;;;;;;5058572;28;20072;-66
2023/03/10 12:14:04;;;;;;;12.38;11.77;;;;;;;;;;5059917;28;20040;-66
2023/03/10 12:16:35;;;;;;;11.27;10.77;;;;;;;;;;5068448;28;20043;-66
2023/03/10 12:19:00;;;;;;;11.57;10.98;;;;;;;;;;5074290;28;20032;-69
2023/03/10 12:21:27;;;;;;;12.52;11.93;;;;;;;;;;5064595;28;20025;-68
2023/03/10 12:23:54;;;;;;;11.88;11.27;;;;;;;;;;5063225;28;20050;-69
2023/03/10 12:26:37;;;;;;;11.98;11.38;;;;;;;;;;5055303;28;20025;-71
2023/03/10 12:29:26;;;;;;;12.45;11.85;;;;;;;;;;5057022;28;20036;-69
2023/03/10 12:31:52;;;;;;;12.27;11.68;;;;;;;;;;5061740;28;20061;-67
2023/03/10 12:34:21;;;;;;;12.52;11.93;;;;;;;;;;5066037;28;20616;-66
2023/03/10 12:36:47;;;;;;;11.18;10.68;;;;;;;;;;5074119;28;20156;-68
2023/03/10 12:39:24;;;;;;;12.20;11.60;;;;;;;;;;5062116;28;20028;-70
2023/03/10 12:41:51;;;;;;;12.23;11.63;;;;;;;;;;5062669;28;20024;-66
2023/03/10 12:44:16;;;;;;;12.98;12.27;;;;;;;;;;5065018;28;20132;-68
2023/03/10 12:46:41;;;;;;;11.90;11.30;;;;;;;;;;5072155;28;20557;-67
2023/03/10 12:49:13;;;;;;;11.23;10.73;;;;;;;;;;5061666;28;20086;-63
2023/03/10 12:51:41;;;;;;;11.98;11.38;;;;;;;;;;5059838;28;20054;-65
2023/03/10 12:54:25;;;;;;;12.00;11.40;;;;;;;;;;5056944;28;20059;-66
2023/03/10 12:57:00;;;;;;;12.38;11.77;;;;;;;;;;5057876;28;20049;-67
2023/03/10 12:59:30;;;;;;;11.07;10.57;;;;;;;;;;5072916;28;20115;-68
2023/03/10 13:01:56;;;;;;;11.93;11.32;;;;;;;;;;5058694;28;20436;-65
2023/03/10 13:04:22;;;;;;;12.35;11.75;;;;;;;;;;5066577;28;20056;-65
2023/03/10 13:06:48;;;;;;;11.90;11.30;;;;;;;;;;5055351;28;20056;-65
2023/03/10 13:09:32;;;;;;;11.75;11.15;;;;;;;;;;5067128;28;20051;-66
2023/03/10 13:12:13;;;;;;;12.00;11.40;;;;;;;;;;5059046;28;20443;-66
2023/03/10 13:14:39;;;;;;;11.63;11.02;;;;;;;;;;5057028;28;20875;-66
2023/03/10 13:17:05;;;;;;;11.77;11.18;;;;;;;;;;5054759;28;20033;-67
2023/03/10 13:19:32;;;;;;;11.95;11.35;;;;;;;;;;5057037;28;20082;-67
2023/03/10 13:21:58;;;;;;;12.13;11.52;;;;;;;;;;5067137;28;20012;-67
2023/03/10 13:24:23;;;;;;;10.82;10.32;;;;;;;;;;5061914;28;20043;-66
2023/03/10 13:27:00;;;;;;;12.05;11.45;;;;;;;;;;5075799;28;20047;-67
2023/03/10 13:29:26;;;;;;;12.10;11.50;;;;;;;;;;5066227;28;20390;-64
2023/03/10 13:31:52;;;;;;;12.05;11.45;;;;;;;;;;5055456;28;20108;-68
2023/03/10 13:34:19;;;;;;;11.65;11.05;;;;;;;;;;5061706;28;20028;-65
2023/03/10 13:36:45;;;;;;;11.20;10.70;;;;;;;;;;5053893;28;20094;-67
2023/03/10 13:39:14;;;;;;;11.85;11.25;;;;;;;;;;5058190;28;20041;-66
2023/03/10 13:41:40;;;;;;;12.45;11.85;;;;;;;;;;5063397;28;20626;-66
2023/03/10 13:44:13;;;;;;;11.15;10.65;;;;;;;;;;5068077;28;20058;-66
2023/03/10 13:46:44;;;;;;;10.77;10.27;;;;;;;;;;5064793;28;20028;-68
2023/03/10 13:49:12;;;;;;;12.38;11.77;;;;;;;;;;5063501;28;20133;-64
2023/03/10 13:51:37;;;;;;;12.38;11.77;;;;;;;;;;5068101;28;20526;-66
2023/03/10 13:54:10;;;;;;;11.60;11.00;;;;;;;;;;5056096;28;20040;-64
2023/03/10 13:56:37;;;;;;;10.90;10.40;;;;;;;;;;5055816;28;20046;-65
2023/03/10 13:59:05;;;;;;;11.07;10.57;;;;;;;;;;5062343;28;20270;-65
2023/03/10 14:01:33;;;;;;;11.63;11.02;;;;;;;;;;5066173;28;20046;-63
2023/03/10 14:04:01;;;;;;;11.82;11.23;;;;;;;;;;5062812;28;20028;-68
2023/03/10 14:06:27;;;;;;;12.60;12.00;;;;;;;;;;5056028;28;20040;-66
2023/03/10 14:08:54;;;;;;;12.38;11.77;;;;;;;;;;5063530;28;20214;-66
2023/03/10 14:11:46;;;;;;;11.88;11.27;;;;;;;;;;5070503;28;20191;-65
2023/03/10 14:14:12;;;;;;;11.82;11.23;;;;;;;;;;5056566;28;20032;-70
2023/03/10 14:16:44;;;;;;;11.30;10.77;;;;;;;;;;5063366;28;20028;-67
2023/03/10 14:19:10;;;;;;;11.13;10.63;;;;;;;;;;5067640;28;20021;-67
2023/03/10 14:21:38;;;;;;;12.13;11.52;;;;;;;;;;5046483;28;20025;-67
2023/03/10 14:24:10;;;;;;;11.63;11.02;;;;;;;;;;5057156;28;20082;-67
2023/03/10 14:26:37;;;;;;;12.48;11.88;;;;;;;;;;5059451;28;20023;-66
2023/03/10 14:29:05;;;;;;;12.18;11.57;;;;;;;;;;5059723;28;20119;-65